Time;durP1;ratioP1;P1;durP2;ratioP2;P2;SDS_P1;SDS_P2;PMS_P1;PMS_P2;Temp;Humidity;BMP_temperature;BMP_pressure;BME280_temperature;BME280_humidity;BME280_pressure;Samples;Min_cycle;Max_cycle;Signal;HPM_P1;HPM_P2
2023/07/10 00:01:12;;;;;;;10.07;7.15;;;22.20;87.70;;;;;;5053322;28;20025;-69
2023/07/10 00:03:38;;;;;;;7.97;6.35;;;22.10;87.80;;;;;;5054641;28;20490;-69
2023/07/10 00:06:08;;;;;;;10.75;6.35;;;22.20;87.90;;;;;;5054966;28;20021;-69
2023/07/10 00:08:34;;;;;;;9.02;6.85;;;22.20;88.00;;;;;;5052654;28;20079;-69
2023/07/10 00:11:00;;;;;;;9.45;6.20;;;22.10;88.10;;;;;;5047303;28;20037;-68
2023/07/10 00:13:25;;;;;;;12.45;6.88;;;22.10;88.20;;;;;;5060553;28;20029;-69
2023/07/10 00:16:19;;;;;;;10.00;6.75;;;22.10;88.20;;;;;;5051170;28;20059;-68
2023/07/10 00:18:46;;;;;;;8.55;6.65;;;22.10;88.30;;;;;;5056882;28;20029;-67
2023/07/10 00:21:12;;;;;;;10.40;6.65;;;22.10;88.30;;;;;;5055268;28;20453;-67
2023/07/10 00:23:38;;;;;;;10.18;7.40;;;22.00;88.50;;;;;;5055430;28;20498;-68
2023/07/10 00:26:29;;;;;;;12.30;7.95;;;22.00;88.60;;;;;;5053430;28;20020;-67
2023/07/10 00:28:57;;;;;;;9.85;6.55;;;22.00;88.70;;;;;;5048673;28;20769;-68
2023/07/10 00:31:24;;;;;;;9.20;6.13;;;22.00;88.70;;;;;;5051397;28;20025;-68
2023/07/10 00:33:51;;;;;;;9.73;6.28;;;22.00;88.70;;;;;;5027638;28;20032;-69
2023/07/10 00:36:33;;;;;;;10.30;6.35;;;22.00;88.70;;;;;;5052837;28;20025;-69
2023/07/10 00:39:12;;;;;;;9.15;6.25;;;22.00;88.80;;;;;;5046282;28;20029;-68
2023/07/10 00:41:40;;;;;;;11.32;7.15;;;22.00;88.80;;;;;;5057517;28;20035;-68
2023/07/10 00:44:06;;;;;;;9.23;6.82;;;21.90;88.90;;;;;;5061606;28;20029;-68
2023/07/10 00:46:40;;;;;;;8.05;5.80;;;21.90;89.00;;;;;;5051064;28;20040;-67
2023/07/10 00:49:21;;;;;;;10.20;5.97;;;21.90;89.10;;;;;;5063881;28;20036;-68
2023/07/10 00:52:12;;;;;;;7.77;5.60;;;21.90;89.00;;;;;;5044063;28;20429;-68
2023/07/10 00:54:41;;;;;;;8.98;6.35;;;21.90;88.90;;;;;;5044863;28;20033;-68
2023/07/10 00:57:15;;;;;;;11.18;5.78;;;21.90;88.90;;;;;;5053636;28;20020;-68
2023/07/10 00:59:42;;;;;;;9.10;5.80;;;21.90;88.90;;;;;;5057204;28;20020;-68
2023/07/10 01:02:08;;;;;;;7.97;5.95;;;21.90;88.80;;;;;;5063047;28;20018;-69
2023/07/10 01:04:34;;;;;;;9.32;6.18;;;21.90;88.70;;;;;;5059869;28;20091;-69
2023/07/10 01:07:00;;;;;;;8.10;5.32;;;21.90;88.60;;;;;;5065117;28;20089;-68
2023/07/10 01:09:27;;;;;;;9.63;5.90;;;21.90;88.50;;;;;;5046912;28;20029;-68
2023/07/10 01:11:53;;;;;;;10.95;7.22;;;21.90;88.30;;;;;;5059194;28;20033;-68
2023/07/10 01:14:20;;;;;;;9.80;6.00;;;21.90;88.50;;;;;;5057447;28;20032;-68
2023/07/10 01:16:47;;;;;;;10.07;6.30;;;21.80;88.60;;;;;;5041709;28;20053;-68
2023/07/10 01:19:19;;;;;;;9.70;6.05;;;21.80;88.60;;;;;;5047559;28;20021;-68
2023/07/10 01:21:45;;;;;;;10.45;5.97;;;21.80;88.60;;;;;;5060666;28;20021;-67
2023/07/10 01:24:11;;;;;;;9.18;5.70;;;21.80;88.60;;;;;;5058650;28;20029;-68
2023/07/10 01:26:38;;;;;;;10.27;6.30;;;21.70;88.60;;;;;;5071187;28;20376;-69
2023/07/10 01:29:11;;;;;;;8.68;5.90;;;21.70;88.80;;;;;;5059455;28;20410;-68
2023/07/10 01:31:38;;;;;;;7.00;5.53;;;21.60;88.90;;;;;;5057932;28;20043;-68
2023/07/10 01:34:05;;;;;;;9.55;6.00;;;21.70;89.00;;;;;;5054860;28;20025;-68
2023/07/10 01:36:35;;;;;;;8.30;6.13;;;21.60;89.00;;;;;;5051550;28;20025;-68
2023/07/10 01:39:10;;;;;;;8.00;5.13;;;21.60;89.00;;;;;;5045292;28;20037;-67
2023/07/10 01:41:40;;;;;;;7.50;5.80;;;21.60;89.00;;;;;;5052692;28;20017;-67
2023/07/10 01:44:23;;;;;;;8.45;5.88;;;21.50;89.10;;;;;;5054761;28;20103;-67
2023/07/10 01:46:49;;;;;;;7.78;4.50;;;21.50;89.10;;;;;;5046445;28;20110;-67
2023/07/10 01:49:18;;;;;;;8.02;5.15;;;21.50;89.10;;;;;;5047901;28;20021;-67
2023/07/10 01:51:45;;;;;;;9.60;5.50;;;21.50;89.10;;;;;;5054508;28;20443;-68
2023/07/10 01:54:14;;;;;;;7.65;4.95;;;21.40;89.10;;;;;;5061835;28;20017;-67
2023/07/10 01:56:41;;;;;;;7.05;4.60;;;21.40;89.10;;;;;;5053855;28;20068;-68
2023/07/10 01:59:07;;;;;;;8.65;4.90;;;21.40;89.10;;;;;;5055183;28;20031;-69
2023/07/10 02:01:32;;;;;;;7.15;5.15;;;21.40;89.00;;;;;;5063792;28;20446;-69
2023/07/10 02:03:58;;;;;;;7.85;4.93;;;21.50;88.90;;;;;;5057268;28;20017;-69
2023/07/10 02:06:23;;;;;;;7.97;4.78;;;21.50;88.70;;;;;;5045559;28;20025;-69
2023/07/10 02:08:49;;;;;;;7.65;4.47;;;21.50;88.60;;;;;;5058979;28;20025;-69
2023/07/10 02:11:14;;;;;;;7.07;4.30;;;21.50;88.40;;;;;;5048918;28;20507;-68
2023/07/10 02:13:40;;;;;;;7.63;4.15;;;21.50;88.40;;;;;;5054785;28;20033;-69
2023/07/10 02:16:10;;;;;;;6.13;4.60;;;21.60;88.30;;;;;;5055303;28;20052;-69
2023/07/10 02:18:35;;;;;;;6.65;4.50;;;21.60;88.20;;;;;;5052282;28;20020;-68
2023/07/10 02:21:01;;;;;;;6.10;3.95;;;21.60;88.10;;;;;;5050074;28;20104;-68
2023/07/10 02:23:27;;;;;;;7.97;4.70;;;21.60;88.00;;;;;;5054627;28;20032;-69
2023/07/10 02:25:53;;;;;;;5.95;4.00;;;21.60;87.80;;;;;;5034687;28;20067;-69
2023/07/10 02:28:19;;;;;;;7.18;4.00;;;21.60;87.70;;;;;;5049771;28;20063;-69
2023/07/10 02:30:44;;;;;;;5.55;3.47;;;21.60;87.70;;;;;;5050225;28;20035;-67
2023/07/10 02:33:10;;;;;;;6.50;3.30;;;21.60;87.70;;;;;;5055408;28;20169;-68
2023/07/10 02:35:35;;;;;;;5.82;3.55;;;21.60;87.50;;;;;;5046735;28;20040;-69
2023/07/10 02:38:01;;;;;;;6.28;3.90;;;21.60;87.40;;;;;;5043972;28;20097;-68
2023/07/10 02:40:27;;;;;;;7.40;3.60;;;21.60;87.30;;;;;;5059320;28;20029;-69
2023/07/10 02:42:52;;;;;;;6.57;3.60;;;21.50;87.30;;;;;;5052375;28;20032;-69
2023/07/10 02:45:19;;;;;;;7.53;3.85;;;21.60;87.20;;;;;;5049917;28;20065;-69
2023/07/10 02:47:44;;;;;;;5.03;3.15;;;21.60;87.00;;;;;;5050894;28;20040;-68
2023/07/10 02:50:10;;;;;;;5.57;3.50;;;21.60;86.90;;;;;;5052040;28;20061;-67
2023/07/10 02:52:36;;;;;;;4.90;3.30;;;21.60;86.90;;;;;;5044364;28;20029;-67
2023/07/10 02:55:01;;;;;;;4.97;3.17;;;21.60;86.80;;;;;;5052102;28;20106;-67
2023/07/10 02:57:27;;;;;;;5.30;3.28;;;21.50;86.60;;;;;;5034144;28;20104;-68
2023/07/10 02:59:52;;;;;;;7.38;3.80;;;21.50;86.60;;;;;;5049809;28;20056;-67
2023/07/10 03:02:19;;;;;;;5.65;3.00;;;21.50;86.50;;;;;;5047387;28;20032;-68
2023/07/10 03:04:44;;;;;;;4.68;3.10;;;21.40;86.50;;;;;;5057240;28;20555;-67
2023/07/10 03:07:10;;;;;;;4.90;2.92;;;21.40;86.60;;;;;;5055121;28;20111;-68
2023/07/10 03:09:36;;;;;;;4.28;2.78;;;21.40;86.70;;;;;;5057134;28;20024;-68
2023/07/10 03:12:02;;;;;;;4.68;2.60;;;21.30;86.50;;;;;;5057473;28;20032;-68
2023/07/10 03:14:27;;;;;;;3.70;2.47;;;21.30;86.40;;;;;;5049512;28;20540;-68
2023/07/10 03:16:53;;;;;;;5.57;2.58;;;21.30;86.40;;;;;;5061523;28;20031;-67
2023/07/10 03:19:19;;;;;;;4.05;2.42;;;21.30;86.20;;;;;;5056383;28;20060;-68
2023/07/10 03:21:45;;;;;;;2.90;2.13;;;21.30;86.20;;;;;;5061599;28;20020;-68
2023/07/10 03:24:11;;;;;;;4.43;1.95;;;21.30;85.90;;;;;;5053420;28;20028;-68
2023/07/10 03:26:36;;;;;;;3.85;2.10;;;21.30;85.70;;;;;;5062915;28;20028;-68
2023/07/10 03:29:12;;;;;;;4.88;2.10;;;21.20;85.40;;;;;;5058089;28;20083;-67
2023/07/10 03:31:38;;;;;;;3.33;2.08;;;21.20;85.30;;;;;;5049566;28;20436;-68
2023/07/10 03:34:04;;;;;;;4.43;2.33;;;21.20;85.20;;;;;;5057479;28;20033;-68
2023/07/10 03:36:30;;;;;;;4.63;2.13;;;21.20;85.00;;;;;;5055926;28;20104;-66
2023/07/10 03:38:56;;;;;;;3.83;2.20;;;21.20;84.90;;;;;;5058412;28;20105;-66
2023/07/10 03:41:22;;;;;;;2.63;1.90;;;21.10;84.80;;;;;;5063318;28;20109;-67
2023/07/10 03:43:48;;;;;;;3.40;1.88;;;21.10;84.70;;;;;;5052813;28;20014;-67
2023/07/10 03:46:17;;;;;;;2.95;1.80;;;21.10;84.50;;;;;;5048777;28;20030;-67
2023/07/10 03:48:43;;;;;;;5.50;2.13;;;21.10;84.30;;;;;;5050213;28;20411;-66
2023/07/10 03:51:09;;;;;;;3.30;2.03;;;21.10;84.30;;;;;;5055220;28;20025;-67
2023/07/10 03:53:35;;;;;;;3.42;1.90;;;21.10;84.20;;;;;;5047465;28;20395;-67
2023/07/10 03:56:01;;;;;;;4.45;2.30;;;21.10;84.10;;;;;;5056325;28;20020;-67
2023/07/10 03:58:29;;;;;;;4.18;2.20;;;21.10;83.90;;;;;;5052930;28;20025;-67
2023/07/10 04:00:56;;;;;;;3.83;2.05;;;21.10;83.90;;;;;;5031573;28;20013;-67
2023/07/10 04:03:25;;;;;;;3.20;1.90;;;21.10;83.90;;;;;;5056608;28;20056;-67
2023/07/10 04:05:57;;;;;;;4.00;1.88;;;21.10;83.80;;;;;;5041215;28;20468;-67
2023/07/10 04:08:34;;;;;;;3.95;2.20;;;21.10;83.70;;;;;;5057073;28;20098;-66
2023/07/10 04:11:04;;;;;;;3.80;2.30;;;21.10;83.40;;;;;;5036415;28;20035;-66
2023/07/10 04:13:29;;;;;;;4.13;2.20;;;21.10;83.20;;;;;;5037122;28;20438;-66
2023/07/10 04:15:58;;;;;;;2.83;2.00;;;21.10;83.10;;;;;;5048837;28;20032;-67
2023/07/10 04:18:25;;;;;;;3.00;2.00;;;21.10;83.00;;;;;;5054236;28;20048;-66
2023/07/10 04:20:51;;;;;;;3.22;2.20;;;21.00;82.90;;;;;;5044224;28;20402;-67
2023/07/10 04:23:18;;;;;;;3.25;2.28;;;21.10;82.80;;;;;;5055761;28;20100;-67
2023/07/10 04:25:45;;;;;;;3.92;2.30;;;21.00;82.70;;;;;;5044740;28;20024;-67
2023/07/10 04:28:10;;;;;;;3.95;2.30;;;21.10;82.50;;;;;;5048850;28;20034;-67
2023/07/10 04:30:36;;;;;;;3.50;2.08;;;21.10;82.40;;;;;;5038541;28;20033;-66
2023/07/10 04:33:01;;;;;;;3.20;2.30;;;21.10;82.10;;;;;;5062325;28;20040;-65
2023/07/10 04:35:27;;;;;;;3.60;2.10;;;21.10;81.90;;;;;;5054673;28;20021;-67
2023/07/10 04:37:52;;;;;;;3.83;2.40;;;21.10;81.80;;;;;;5044119;28;20070;-67
2023/07/10 04:40:18;;;;;;;2.20;1.73;;;21.00;81.60;;;;;;5063763;28;20021;-67
2023/07/10 04:42:44;;;;;;;4.03;2.40;;;21.10;81.60;;;;;;5056497;28;20139;-67
2023/07/10 04:45:09;;;;;;;4.20;2.40;;;21.00;81.50;;;;;;5063222;28;20028;-67
2023/07/10 04:47:35;;;;;;;3.10;2.22;;;21.00;81.60;;;;;;5050807;28;20024;-67
2023/07/10 04:50:00;;;;;;;5.78;2.40;;;21.00;81.50;;;;;;5059009;28;20028;-67
2023/07/10 04:52:26;;;;;;;3.80;2.30;;;20.90;81.30;;;;;;5064295;28;20028;-66
2023/07/10 04:54:51;;;;;;;2.72;2.20;;;20.90;81.30;;;;;;5061150;28;20495;-66
2023/07/10 04:57:17;;;;;;;5.35;2.50;;;20.90;81.30;;;;;;5049272;28;20033;-66
2023/07/10 04:59:45;;;;;;;3.58;2.30;;;21.00;81.20;;;;;;5070729;28;20090;-67
2023/07/10 05:02:11;;;;;;;2.88;1.90;;;21.00;81.00;;;;;;5060212;28;20032;-67
2023/07/10 05:04:36;;;;;;;4.60;2.13;;;21.10;80.90;;;;;;5052712;28;20025;-69
2023/07/10 05:07:03;;;;;;;4.90;2.70;;;21.10;80.70;;;;;;5053362;28;20025;-66
2023/07/10 05:09:32;;;;;;;4.20;1.98;;;21.10;80.60;;;;;;5060121;28;20086;-66
2023/07/10 05:11:58;;;;;;;4.60;2.60;;;21.10;80.50;;;;;;5061726;28;20059;-67
2023/07/10 05:14:24;;;;;;;4.53;2.40;;;21.10;80.20;;;;;;5051352;28;20083;-67
2023/07/10 05:16:50;;;;;;;5.82;2.40;;;21.10;80.20;;;;;;5051371;28;20028;-67
2023/07/10 05:19:16;;;;;;;4.72;2.25;;;21.00;80.10;;;;;;5051004;28;20039;-67
2023/07/10 05:21:41;;;;;;;4.18;2.40;;;21.00;80.20;;;;;;5050853;28;20550;-67
2023/07/10 05:24:07;;;;;;;4.75;2.30;;;20.90;80.30;;;;;;5064408;28;20379;-68
2023/07/10 05:26:33;;;;;;;4.50;2.40;;;21.00;80.30;;;;;;5050391;28;20074;-67
2023/07/10 05:28:58;;;;;;;5.20;2.30;;;20.90;80.30;;;;;;5047442;28;20037;-68
2023/07/10 05:31:24;;;;;;;3.72;2.40;;;21.30;79.70;;;;;;5049149;28;20029;-68
2023/07/10 05:33:50;;;;;;;3.75;2.28;;;21.50;78.70;;;;;;5054224;28;20031;-67
2023/07/10 05:36:17;;;;;;;4.78;2.60;;;21.50;78.40;;;;;;5055012;28;20044;-67
2023/07/10 05:38:48;;;;;;;4.82;2.30;;;21.50;78.60;;;;;;5071693;28;20111;-67
2023/07/10 05:41:15;;;;;;;4.28;2.40;;;22.10;77.20;;;;;;5068441;28;20039;-67
2023/07/10 05:43:40;;;;;;;5.10;2.33;;;22.70;75.30;;;;;;5054465;28;20048;-66
2023/07/10 05:46:06;;;;;;;4.50;2.17;;;22.50;74.70;;;;;;5056923;28;20130;-66
2023/07/10 05:48:32;;;;;;;4.40;2.00;;;22.20;75.30;;;;;;5053405;28;20013;-67
2023/07/10 05:50:59;;;;;;;3.22;1.98;;;21.90;75.80;;;;;;5055469;28;20051;-68
2023/07/10 05:53:25;;;;;;;4.32;1.95;;;21.80;76.50;;;;;;5059262;28;20103;-66
2023/07/10 05:55:53;;;;;;;4.18;2.15;;;22.00;76.30;;;;;;5066367;28;20087;-67
2023/07/10 05:58:20;;;;;;;2.53;1.67;;;22.80;75.10;;;;;;5059037;28;20048;-67
2023/07/10 06:00:48;;;;;;;3.75;2.15;;;23.50;73.70;;;;;;5053402;28;20028;-67
2023/07/10 06:03:14;;;;;;;3.58;2.13;;;24.10;71.30;;;;;;5058786;28;20104;-67
2023/07/10 06:05:40;;;;;;;4.45;2.17;;;24.30;70.10;;;;;;5058383;28;20100;-67
2023/07/10 06:08:06;;;;;;;3.05;1.90;;;24.60;69.20;;;;;;5059925;28;20557;-67
2023/07/10 06:10:33;;;;;;;3.40;1.85;;;24.70;68.50;;;;;;5055713;28;20025;-66
2023/07/10 06:12:59;;;;;;;2.97;2.03;;;24.80;67.90;;;;;;5063869;28;20028;-67
2023/07/10 06:15:24;;;;;;;3.47;1.90;;;24.70;67.70;;;;;;5056993;28;20031;-67
2023/07/10 06:17:50;;;;;;;5.60;1.60;;;24.60;68.30;;;;;;5041734;28;20052;-67
2023/07/10 06:20:15;;;;;;;4.53;1.80;;;24.50;67.70;;;;;;5055648;28;20021;-67
2023/07/10 06:22:41;;;;;;;3.53;1.80;;;24.50;67.80;;;;;;5060022;28;20387;-67
2023/07/10 06:25:07;;;;;;;4.43;1.58;;;24.40;67.70;;;;;;5049145;28;20032;-67
2023/07/10 06:27:33;;;;;;;5.55;1.88;;;24.40;67.40;;;;;;5056428;28;20021;-67
2023/07/10 06:29:59;;;;;;;6.43;1.92;;;24.40;68.30;;;;;;5057975;28;20573;-68
2023/07/10 06:32:25;;;;;;;4.07;1.85;;;24.50;67.50;;;;;;5047156;28;20032;-68
2023/07/10 06:34:51;;;;;;;4.05;1.80;;;24.50;67.40;;;;;;5051696;28;20415;-67
2023/07/10 06:37:16;;;;;;;4.88;1.80;;;24.50;67.00;;;;;;5038710;28;20048;-67
2023/07/10 06:39:43;;;;;;;2.47;1.30;;;24.60;66.70;;;;;;5047214;28;20132;-68
2023/07/10 06:42:09;;;;;;;3.67;1.70;;;24.60;66.60;;;;;;5049817;28;20154;-68
2023/07/10 06:44:34;;;;;;;3.70;1.90;;;24.60;66.40;;;;;;5049173;28;20031;-67
2023/07/10 06:47:00;;;;;;;3.47;1.55;;;24.60;66.10;;;;;;5049555;28;20021;-68
2023/07/10 06:49:26;;;;;;;3.50;1.60;;;24.60;66.20;;;;;;5048416;28;20017;-68
2023/07/10 06:51:51;;;;;;;3.20;1.38;;;24.70;66.00;;;;;;5048414;28;20036;-68
2023/07/10 06:54:17;;;;;;;3.33;1.35;;;24.80;65.80;;;;;;5044646;28;20012;-68
2023/07/10 06:56:42;;;;;;;3.65;1.50;;;24.90;65.40;;;;;;5049762;28;20025;-68
2023/07/10 06:59:08;;;;;;;5.10;1.60;;;24.90;64.80;;;;;;5050167;28;20025;-68
2023/07/10 07:01:34;;;;;;;3.80;1.67;;;24.80;64.00;;;;;;5031109;28;20024;-68
2023/07/10 07:03:59;;;;;;;3.53;1.75;;;24.90;64.10;;;;;;5049516;28;20052;-67
2023/07/10 07:06:25;;;;;;;4.70;1.80;;;24.90;63.20;;;;;;5049128;28;20025;-68
2023/07/10 07:08:52;;;;;;;4.32;1.80;;;24.80;62.50;;;;;;5049786;28;20033;-68
2023/07/10 07:11:18;;;;;;;4.40;1.95;;;24.90;62.70;;;;;;5046452;28;20518;-68
2023/07/10 07:13:44;;;;;;;4.10;1.45;;;25.00;62.20;;;;;;5047338;28;20649;-67
2023/07/10 07:16:10;;;;;;;3.80;1.52;;;25.00;61.80;;;;;;5055040;28;20025;-69
2023/07/10 07:18:35;;;;;;;4.38;1.42;;;25.10;61.20;;;;;;5050083;28;20033;-68
2023/07/10 07:21:01;;;;;;;3.67;1.40;;;25.20;61.20;;;;;;5051537;28;20048;-68
2023/07/10 07:23:27;;;;;;;3.92;1.17;;;25.40;60.60;;;;;;5049904;28;20025;-68
2023/07/10 07:25:54;;;;;;;2.72;1.20;;;25.50;60.00;;;;;;5048791;28;20104;-69
2023/07/10 07:28:20;;;;;;;4.55;1.63;;;25.50;59.70;;;;;;5042041;28;20028;-68
2023/07/10 07:30:48;;;;;;;3.53;1.40;;;25.50;59.20;;;;;;5046091;28;20411;-70
2023/07/10 07:33:19;;;;;;;6.45;1.50;;;25.50;59.00;;;;;;5046042;28;20020;-69
2023/07/10 07:35:46;;;;;;;3.63;1.20;;;25.50;58.90;;;;;;5046859;28;20064;-68
2023/07/10 07:38:13;;;;;;;4.28;1.27;;;25.50;58.60;;;;;;5031209;28;20048;-68
2023/07/10 07:40:38;;;;;;;4.38;1.58;;;25.60;58.30;;;;;;5043903;28;20034;-69
2023/07/10 07:43:04;;;;;;;3.10;1.20;;;25.70;58.20;;;;;;5047213;28;20075;-68
2023/07/10 07:45:30;;;;;;;3.55;1.40;;;25.70;58.40;;;;;;5029502;28;20104;-69
2023/07/10 07:47:55;;;;;;;3.58;1.27;;;25.70;58.50;;;;;;5044797;28;20443;-67
2023/07/10 07:50:21;;;;;;;4.25;1.65;;;25.80;58.30;;;;;;5043704;28;20048;-68
2023/07/10 07:52:46;;;;;;;3.03;1.20;;;25.90;57.80;;;;;;5047017;28;20166;-68
2023/07/10 07:55:12;;;;;;;3.58;1.40;;;25.80;57.90;;;;;;5047535;28;20103;-68
2023/07/10 07:57:38;;;;;;;4.55;1.65;;;25.80;58.10;;;;;;5047655;28;20036;-67
2023/07/10 08:00:06;;;;;;;2.45;1.30;;;25.90;58.00;;;;;;5046202;28;20108;-67
2023/07/10 08:02:32;;;;;;;5.40;1.42;;;26.00;58.10;;;;;;5046972;28;20127;-66
2023/07/10 08:04:59;;;;;;;3.88;1.25;;;26.00;58.10;;;;;;5052013;28;20068;-67
2023/07/10 08:07:24;;;;;;;3.60;1.27;;;26.10;58.50;;;;;;5062661;28;20024;-68
2023/07/10 08:09:50;;;;;;;2.72;1.25;;;26.30;58.10;;;;;;5042059;28;20029;-67
2023/07/10 08:12:16;;;;;;;4.45;1.40;;;26.30;57.40;;;;;;5058755;28;20458;-68
2023/07/10 08:14:41;;;;;;;4.00;1.40;;;26.30;57.50;;;;;;5059962;28;20032;-68
2023/07/10 08:17:07;;;;;;;3.92;1.52;;;26.40;57.40;;;;;;5062484;28;20491;-68
2023/07/10 08:19:32;;;;;;;5.25;2.03;;;26.40;56.60;;;;;;5051200;28;20100;-68
2023/07/10 08:21:58;;;;;;;3.67;1.55;;;26.30;56.10;;;;;;5034911;28;20297;-67
2023/07/10 08:24:24;;;;;;;4.00;1.27;;;26.30;56.40;;;;;;5050935;28;20021;-68
2023/07/10 08:26:51;;;;;;;4.65;1.30;;;26.30;56.40;;;;;;5050538;28;20488;-68
2023/07/10 08:29:35;;;;;;;5.43;1.60;;;26.30;56.40;;;;;;5055233;28;20025;-68
2023/07/10 08:32:01;;;;;;;4.10;1.52;;;26.30;56.30;;;;;;5053749;28;20032;-68
2023/07/10 08:34:29;;;;;;;4.50;1.80;;;26.20;56.50;;;;;;5052589;28;20029;-68
2023/07/10 08:36:55;;;;;;;4.78;1.70;;;26.20;56.50;;;;;;5053400;28;20037;-67
2023/07/10 08:39:22;;;;;;;4.00;1.23;;;26.30;56.90;;;;;;5050976;28;20647;-68
2023/07/10 08:41:54;;;;;;;4.28;1.40;;;26.30;57.00;;;;;;5054271;28;20020;-68
2023/07/10 08:44:33;;;;;;;4.15;1.38;;;26.40;57.10;;;;;;5050199;28;20033;-68
2023/07/10 08:47:02;;;;;;;5.55;1.33;;;26.60;57.20;;;;;;5050493;28;20059;-67
2023/07/10 08:49:38;;;;;;;5.82;1.58;;;26.80;57.00;;;;;;5051770;28;20017;-69
2023/07/10 08:52:09;;;;;;;5.22;1.58;;;26.90;57.00;;;;;;5052727;28;20029;-69
2023/07/10 08:54:35;;;;;;;3.30;1.30;;;27.00;56.50;;;;;;5052995;28;20025;-68
2023/07/10 08:57:10;;;;;;;4.10;1.45;;;27.00;56.50;;;;;;5054614;28;20514;-68
2023/07/10 08:59:53;;;;;;;4.45;1.58;;;27.00;56.40;;;;;;5048450;28;20111;-67
2023/07/10 09:02:24;;;;;;;6.50;1.55;;;27.00;55.80;;;;;;5042723;28;20025;-68
2023/07/10 09:04:51;;;;;;;5.45;1.42;;;27.10;55.60;;;;;;5051957;28;20105;-67
2023/07/10 09:07:18;;;;;;;2.72;1.33;;;27.10;55.60;;;;;;5052219;28;20128;-68
2023/07/10 09:09:58;;;;;;;4.97;1.30;;;27.10;55.70;;;;;;5050698;28;20091;-68
2023/07/10 09:12:34;;;;;;;5.80;1.40;;;27.20;55.70;;;;;;5052505;28;20029;-67
2023/07/10 09:15:21;;;;;;;3.65;1.35;;;27.30;55.50;;;;;;5031112;28;20028;-66
2023/07/10 09:17:58;;;;;;;4.43;1.40;;;27.20;55.30;;;;;;5050781;28;20025;-68
2023/07/10 09:20:24;;;;;;;4.07;1.30;;;27.10;55.20;;;;;;5053647;28;20108;-68
2023/07/10 09:23:19;;;;;;;4.05;1.40;;;27.00;54.90;;;;;;5050538;28;20057;-69
2023/07/10 09:25:45;;;;;;;5.10;1.50;;;27.00;54.80;;;;;;5044045;28;20531;-68
2023/07/10 09:28:10;;;;;;;4.95;1.60;;;27.10;55.00;;;;;;5058892;28;20051;-68
2023/07/10 09:30:45;;;;;;;2.92;1.30;;;27.00;55.20;;;;;;5050874;28;20553;-69
2023/07/10 09:33:11;;;;;;;4.95;1.70;;;27.20;55.40;;;;;;5053933;28;20036;-69
2023/07/10 09:35:41;;;;;;;5.28;1.45;;;27.20;55.20;;;;;;5051864;28;20033;-68
2023/07/10 09:38:10;;;;;;;3.83;1.30;;;27.30;55.10;;;;;;5052896;28;20040;-68
2023/07/10 09:40:45;;;;;;;4.75;1.50;;;27.30;54.90;;;;;;5052883;28;20044;-68
2023/07/10 09:43:23;;;;;;;3.47;1.52;;;27.40;54.90;;;;;;5051173;28;20031;-67
2023/07/10 09:45:52;;;;;;;3.30;1.30;;;27.50;54.30;;;;;;5049076;28;20074;-69
2023/07/10 09:48:26;;;;;;;3.55;1.55;;;27.50;54.00;;;;;;5049680;28;20104;-68
2023/07/10 09:50:53;;;;;;;4.55;1.67;;;27.50;53.90;;;;;;5038621;28;20051;-68
2023/07/10 09:53:30;;;;;;;4.70;1.65;;;27.50;53.90;;;;;;5052622;28;20107;-68
2023/07/10 09:55:56;;;;;;;3.60;1.50;;;27.40;53.00;;;;;;5053541;28;20040;-69
2023/07/10 09:58:22;;;;;;;5.07;1.80;;;27.10;52.80;;;;;;5051042;28;20020;-68
2023/07/10 10:00:50;;;;;;;2.88;1.27;;;27.10;52.40;;;;;;5055395;28;20062;-69
2023/07/10 10:03:42;;;;;;;3.97;1.20;;;27.10;52.80;;;;;;5037580;28;20662;-69
2023/07/10 10:06:22;;;;;;;3.67;1.30;;;27.10;52.70;;;;;;5045809;28;20064;-68
2023/07/10 10:08:49;;;;;;;5.03;1.50;;;27.20;52.40;;;;;;5050342;28;20059;-68
2023/07/10 10:11:14;;;;;;;4.75;1.42;;;27.20;52.60;;;;;;5054743;28;20041;-68
2023/07/10 10:13:44;;;;;;;3.70;1.20;;;27.10;52.70;;;;;;5041148;28;20599;-69
2023/07/10 10:16:18;;;;;;;3.67;1.23;;;27.30;53.10;;;;;;5055537;28;20166;-69
2023/07/10 10:19:05;;;;;;;3.78;1.50;;;27.50;52.60;;;;;;5064196;28;20029;-68
2023/07/10 10:21:34;;;;;;;2.45;1.30;;;27.60;52.00;;;;;;5049048;28;20483;-69
2023/07/10 10:24:05;;;;;;;3.30;1.25;;;27.70;51.60;;;;;;5048993;28;20025;-68
2023/07/10 10:26:40;;;;;;;5.55;1.38;;;27.70;51.50;;;;;;5048470;28;20033;-70
2023/07/10 10:29:18;;;;;;;3.67;1.10;;;27.80;51.20;;;;;;5045406;28;20063;-68
2023/07/10 10:32:13;;;;;;;4.55;1.20;;;28.00;50.70;;;;;;5055216;28;20025;-69
2023/07/10 10:35:03;;;;;;;3.03;1.10;;;28.20;50.60;;;;;;5045403;28;20013;-69
2023/07/10 10:37:38;;;;;;;3.97;1.33;;;28.40;50.50;;;;;;5051441;28;20020;-68
2023/07/10 10:40:21;;;;;;;2.70;1.10;;;28.40;49.80;;;;;;5048686;28;20426;-69
2023/07/10 10:42:52;;;;;;;3.80;1.40;;;28.30;49.00;;;;;;5052562;28;20343;-69
2023/07/10 10:45:32;;;;;;;3.67;1.30;;;28.30;49.50;;;;;;5049265;28;20393;-69
2023/07/10 10:48:10;;;;;;;4.53;1.40;;;28.40;49.40;;;;;;5047311;28;20398;-69
2023/07/10 10:50:51;;;;;;;3.60;1.35;;;28.40;49.50;;;;;;5053686;28;20480;-68
2023/07/10 10:53:26;;;;;;;3.40;1.42;;;28.40;49.00;;;;;;5050784;28;20029;-69
2023/07/10 10:56:19;;;;;;;4.38;1.55;;;28.40;48.80;;;;;;5045663;28;20100;-69
2023/07/10 10:58:55;;;;;;;4.22;1.30;;;28.40;48.70;;;;;;5028911;28;20036;-67
2023/07/10 11:01:49;;;;;;;3.05;1.30;;;28.40;49.00;;;;;;5048956;28;20029;-68
2023/07/10 11:04:33;;;;;;;4.47;1.20;;;28.50;49.50;;;;;;5047863;28;20021;-68
2023/07/10 11:07:04;;;;;;;3.30;1.30;;;28.70;49.10;;;;;;5049586;28;20056;-69
2023/07/10 11:09:31;;;;;;;5.90;1.60;;;28.70;49.20;;;;;;5030490;28;20106;-68
2023/07/10 11:11:58;;;;;;;3.53;1.50;;;28.80;49.00;;;;;;5048672;28;20442;-67
2023/07/10 11:14:25;;;;;;;4.80;1.40;;;28.80;48.80;;;;;;5049259;28;20040;-69
2023/07/10 11:16:51;;;;;;;2.90;1.30;;;28.90;48.90;;;;;;5050266;28;20036;-69
2023/07/10 11:19:24;;;;;;;3.22;1.23;;;29.10;48.70;;;;;;5049361;28;20098;-69
2023/07/10 11:21:52;;;;;;;4.20;1.63;;;29.10;48.50;;;;;;5027236;28;20110;-69
2023/07/10 11:24:31;;;;;;;3.35;1.60;;;29.00;48.30;;;;;;5045248;28;20021;-70
2023/07/10 11:27:00;;;;;;;3.88;1.38;;;28.80;48.60;;;;;;5048551;28;20395;-68
2023/07/10 11:29:30;;;;;;;4.38;1.52;;;28.90;49.10;;;;;;5043233;28;20021;-68
2023/07/10 11:32:00;;;;;;;5.93;1.40;;;28.90;47.80;;;;;;5045560;28;20056;-68
2023/07/10 11:34:25;;;;;;;4.97;1.35;;;28.80;48.10;;;;;;5028057;28;20067;-68
2023/07/10 11:36:51;;;;;;;4.68;1.20;;;28.70;47.80;;;;;;5029760;28;20112;-69
2023/07/10 11:39:31;;;;;;;2.60;1.20;;;28.60;48.00;;;;;;5053738;28;20044;-70
2023/07/10 11:42:03;;;;;;;3.95;1.20;;;28.70;48.40;;;;;;5053610;28;20173;-69
2023/07/10 11:44:31;;;;;;;3.92;1.10;;;28.90;48.00;;;;;;5035354;28;20059;-68
2023/07/10 11:47:05;;;;;;;5.38;1.65;;;29.00;48.10;;;;;;5054172;28;20116;-69
2023/07/10 11:49:54;;;;;;;5.60;1.35;;;28.90;47.90;;;;;;5054947;28;20435;-68
2023/07/10 11:52:19;;;;;;;3.65;1.40;;;28.80;48.20;;;;;;5055885;28;20068;-69
2023/07/10 11:54:48;;;;;;;3.70;1.20;;;28.70;48.60;;;;;;5037474;28;20056;-69
2023/07/10 11:57:15;;;;;;;5.38;1.60;;;28.70;48.90;;;;;;5056219;28;20057;-69
2023/07/10 11:59:57;;;;;;;4.32;1.45;;;28.70;47.70;;;;;;5055479;28;20028;-70
2023/07/10 12:02:35;;;;;;;2.95;1.20;;;28.50;47.60;;;;;;5053347;28;20499;-66
2023/07/10 12:05:11;;;;;;;3.40;1.10;;;28.40;48.00;;;;;;5034716;28;20203;-68
2023/07/10 12:07:37;;;;;;;3.40;1.15;;;28.50;48.00;;;;;;5053038;28;20029;-69
2023/07/10 12:10:10;;;;;;;3.13;1.15;;;28.60;48.10;;;;;;5053805;28;20035;-70
2023/07/10 12:12:36;;;;;;;3.90;1.30;;;28.90;48.10;;;;;;5049034;28;20128;-69
2023/07/10 12:15:03;;;;;;;2.75;1.10;;;29.00;47.80;;;;;;5054166;28;20115;-67
2023/07/10 12:17:31;;;;;;;4.68;1.30;;;29.10;47.70;;;;;;5034883;28;20021;-68
2023/07/10 12:20:00;;;;;;;3.63;1.58;;;29.30;47.10;;;;;;5056879;28;20037;-68
2023/07/10 12:22:35;;;;;;;3.55;1.40;;;29.40;47.00;;;;;;5036400;28;20021;-68
2023/07/10 12:25:01;;;;;;;8.02;1.98;;;29.70;46.80;;;;;;5055455;28;20098;-68
2023/07/10 12:27:35;;;;;;;4.70;1.67;;;29.80;46.20;;;;;;5057101;28;20051;-70
2023/07/10 12:30:11;;;;;;;3.75;1.33;;;29.80;46.40;;;;;;5055072;28;20059;-68
2023/07/10 12:32:37;;;;;;;4.57;1.30;;;29.90;46.30;;;;;;5057158;28;20071;-69
2023/07/10 12:35:03;;;;;;;4.85;1.30;;;29.80;46.00;;;;;;5055876;28;20565;-68
2023/07/10 12:37:29;;;;;;;4.88;1.23;;;29.70;46.30;;;;;;5055101;28;20021;-69
2023/07/10 12:39:55;;;;;;;4.18;1.38;;;29.70;46.50;;;;;;5057448;28;20086;-68
2023/07/10 12:42:26;;;;;;;4.57;1.38;;;29.60;46.70;;;;;;5057293;28;20052;-68
2023/07/10 12:44:51;;;;;;;3.40;1.42;;;29.30;46.40;;;;;;5054934;28;20029;-68
2023/07/10 12:47:17;;;;;;;5.53;1.42;;;29.20;46.90;;;;;;5054946;28;20424;-67
2023/07/10 12:49:56;;;;;;;3.97;1.50;;;29.00;47.00;;;;;;5053576;28;20119;-68
2023/07/10 12:52:26;;;;;;;3.58;1.17;;;28.90;47.20;;;;;;5052627;28;20063;-68
2023/07/10 12:54:53;;;;;;;3.92;1.30;;;28.80;47.30;;;;;;5051760;28;20024;-68